Time;durP1;ratioP1;P1;durP2;ratioP2;P2;SDS_P1;SDS_P2;PMS_P1;PMS_P2;Temp;Humidity;BMP_temperature;BMP_pressure;BME280_temperature;BME280_humidity;BME280_pressure;Samples;Min_cycle;Max_cycle;Signal;HPM_P1;HPM_P2
2021/06/07 00:01:19;;;;;;;6.97;5.35;;;;;;;18.53;45.66;101902.38;3595050;39;20052;-71
2021/06/07 00:03:48;;;;;;;9.35;5.75;;;;;;;18.51;45.67;101904.47;3595904;39;20303;-71
2021/06/07 00:06:17;;;;;;;7.88;5.82;;;;;;;18.51;45.66;101910.00;3594149;39;20036;-70
2021/06/07 00:08:50;;;;;;;6.47;4.97;;;;;;;18.50;45.09;101902.72;3595677;39;20052;-71
2021/06/07 00:11:21;;;;;;;7.32;5.35;;;;;;;18.51;45.69;101900.81;3596828;39;20057;-71
2021/06/07 00:13:50;;;;;;;7.78;5.47;;;;;;;18.50;45.69;101908.25;3596159;39;20407;-71
2021/06/07 00:16:18;;;;;;;6.82;5.03;;;;;;;18.49;45.41;101908.41;3595665;40;20033;-71
2021/06/07 00:18:46;;;;;;;8.35;5.75;;;;;;;18.48;45.51;101914.97;3593714;39;20044;-70
2021/06/07 00:21:18;;;;;;;7.07;5.78;;;;;;;18.47;45.72;101908.56;3595356;39;20044;-70
2021/06/07 00:23:48;;;;;;;7.70;5.07;;;;;;;18.47;45.21;101907.69;3593505;39;20044;-71
2021/06/07 00:26:16;;;;;;;5.63;4.47;;;;;;;18.45;45.28;101905.06;3595639;39;20068;-69
2021/06/07 00:28:45;;;;;;;7.38;5.25;;;;;;;18.47;45.39;101905.78;3593344;40;20040;-71
2021/06/07 00:31:14;;;;;;;6.40;5.13;;;;;;;18.45;45.70;101907.84;3588639;40;20416;-70
2021/06/07 00:33:42;;;;;;;6.93;4.75;;;;;;;18.44;45.66;101906.97;3604655;39;20064;-70
2021/06/07 00:36:12;;;;;;;8.18;6.03;;;;;;;18.44;45.17;101906.97;3588604;40;20048;-72
2021/06/07 00:38:40;;;;;;;7.28;5.60;;;;;;;18.44;45.47;101906.13;3588327;40;20041;-71
2021/06/07 00:41:09;;;;;;;7.13;5.47;;;;;;;18.42;45.43;101903.50;3587946;40;20387;-70
2021/06/07 00:43:36;;;;;;;6.68;5.38;;;;;;;18.39;45.55;101908.50;3591828;40;20032;-70
2021/06/07 00:46:06;;;;;;;7.47;5.75;;;;;;;18.40;45.32;101910.22;3587447;40;20029;-71
2021/06/07 00:48:35;;;;;;;7.00;5.07;;;;;;;18.37;45.31;101913.31;3588828;40;20040;-71
2021/06/07 00:51:05;;;;;;;7.28;5.40;;;;;;;18.36;45.56;101912.44;3586987;40;20048;-71
2021/06/07 00:53:33;;;;;;;8.05;5.50;;;;;;;18.32;45.27;101905.50;3587699;40;20029;-71
2021/06/07 00:56:04;;;;;;;7.53;5.50;;;;;;;18.32;45.49;101913.81;3588931;40;20070;-71
2021/06/07 00:58:35;;;;;;;7.45;5.07;;;;;;;18.31;45.16;101908.41;3584907;40;20036;-71
2021/06/07 01:01:05;;;;;;;6.78;5.30;;;;;;;18.29;45.14;101907.69;3587152;40;20338;-71
2021/06/07 01:03:35;;;;;;;6.55;5.05;;;;;;;18.28;45.27;101909.59;3566501;40;20034;-70
2021/06/07 01:06:04;;;;;;;6.60;4.65;;;;;;;18.26;45.69;101908.91;3586927;40;20043;-71
2021/06/07 01:08:32;;;;;;;7.63;5.63;;;;;;;18.25;45.70;101911.81;3588230;40;20043;-71
2021/06/07 01:11:01;;;;;;;6.88;5.63;;;;;;;18.25;45.32;101903.50;3604109;39;20047;-71
2021/06/07 01:13:29;;;;;;;6.22;5.13;;;;;;;18.25;45.58;101907.16;3592425;39;20033;-72
2021/06/07 01:15:57;;;;;;;7.45;5.70;;;;;;;18.26;45.45;101908.03;3587341;40;20075;-71
2021/06/07 01:18:28;;;;;;;6.50;5.38;;;;;;;18.25;45.57;101906.28;3588958;40;20403;-71
2021/06/07 01:21:00;;;;;;;7.45;5.35;;;;;;;18.25;45.76;101901.63;3587325;40;20059;-71
2021/06/07 01:23:31;;;;;;;7.10;5.30;;;;;;;18.24;45.10;101902.63;3588621;40;20028;-71
2021/06/07 01:26:01;;;;;;;6.75;4.95;;;;;;;18.22;45.70;101896.38;3588400;40;20036;-71
2021/06/07 01:28:29;;;;;;;7.22;5.20;;;;;;;18.21;45.56;101893.75;3588361;40;20033;-71
2021/06/07 01:30:58;;;;;;;6.32;4.85;;;;;;;18.19;45.54;101896.72;3604432;39;20109;-71
2021/06/07 01:33:27;;;;;;;8.18;5.55;;;;;;;18.20;45.65;101892.88;3588444;40;20279;-71
2021/06/07 01:35:55;;;;;;;7.90;5.78;;;;;;;18.19;45.72;101893.06;3585692;40;20063;-70
2021/06/07 01:38:23;;;;;;;6.65;5.18;;;;;;;18.17;45.82;101895.13;3595196;39;20036;-72
2021/06/07 01:40:55;;;;;;;7.20;5.32;;;;;;;18.20;45.78;101900.31;3585912;40;20133;-71
2021/06/07 01:43:23;;;;;;;7.60;5.43;;;;;;;18.15;45.34;101897.16;3584631;40;20029;-72
2021/06/07 01:45:52;;;;;;;7.32;5.18;;;;;;;18.17;45.86;101903.44;3593889;40;20060;-71
2021/06/07 01:48:21;;;;;;;6.97;5.28;;;;;;;18.17;45.85;101896.00;3587883;40;20041;-70
2021/06/07 01:50:50;;;;;;;6.95;5.28;;;;;;;18.16;45.68;101897.00;3588049;40;20032;-71
2021/06/07 01:53:19;;;;;;;6.85;5.25;;;;;;;18.15;45.55;101895.25;3588215;40;20049;-72
2021/06/07 01:55:48;;;;;;;6.80;5.00;;;;;;;18.17;45.30;101892.34;3588072;40;20059;-71
2021/06/07 01:58:19;;;;;;;6.72;5.35;;;;;;;18.17;45.64;101892.34;3588091;40;20346;-71
2021/06/07 02:00:49;;;;;;;7.60;5.15;;;;;;;18.16;45.61;101898.91;3587001;40;20033;-71
2021/06/07 02:03:19;;;;;;;6.38;4.88;;;;;;;18.15;45.63;101900.81;3581497;40;20045;-72
2021/06/07 02:05:49;;;;;;;8.10;5.40;;;;;;;18.14;45.65;101896.28;3588256;40;20513;-71
2021/06/07 02:08:17;;;;;;;8.00;5.68;;;;;;;18.14;45.30;101901.81;3588316;40;20053;-71
2021/06/07 02:10:49;;;;;;;7.63;5.75;;;;;;;18.14;45.50;101901.81;3587515;40;20458;-70
2021/06/07 02:13:18;;;;;;;8.73;5.65;;;;;;;18.14;45.65;101900.97;3588269;40;20048;-71
2021/06/07 02:15:53;;;;;;;7.43;5.53;;;;;;;18.15;45.80;101905.47;3587362;40;20288;-71
2021/06/07 02:18:21;;;;;;;6.63;5.40;;;;;;;18.10;45.77;101900.41;3587975;40;20057;-72
2021/06/07 02:20:48;;;;;;;7.28;5.68;;;;;;;18.10;45.77;101905.97;3586457;40;20126;-71
2021/06/07 02:23:16;;;;;;;8.68;6.68;;;;;;;18.09;45.57;101906.97;3588325;40;20037;-71
2021/06/07 02:25:44;;;;;;;8.43;6.63;;;;;;;18.09;45.36;101900.56;3588464;40;20025;-70
2021/06/07 02:28:13;;;;;;;9.95;5.97;;;;;;;18.09;45.37;101903.34;3588156;40;20028;-71
2021/06/07 02:30:43;;;;;;;8.02;6.45;;;;;;;18.08;45.86;101899.69;3588128;40;20110;-71
2021/06/07 02:33:11;;;;;;;8.50;5.93;;;;;;;18.05;45.56;101906.41;3582647;40;20040;-72
2021/06/07 02:35:39;;;;;;;9.25;6.43;;;;;;;18.04;45.58;101901.88;3587232;40;20040;-72
2021/06/07 02:38:08;;;;;;;9.13;6.45;;;;;;;18.03;45.82;101900.13;3603663;39;20036;-73
2021/06/07 02:40:38;;;;;;;8.63;6.68;;;;;;;18.03;45.79;101902.88;3588158;40;20029;-71
2021/06/07 02:43:07;;;;;;;8.88;6.45;;;;;;;18.00;45.26;101900.44;3593581;39;20427;-72
2021/06/07 02:45:34;;;;;;;10.82;7.53;;;;;;;18.00;45.72;101899.56;3592404;39;20533;-70
2021/06/07 02:48:06;;;;;;;10.10;7.70;;;;;;;17.99;45.92;101900.59;3584515;40;20064;-72
2021/06/07 02:50:36;;;;;;;10.38;7.93;;;;;;;17.97;45.74;101910.94;3588059;40;20392;-72
2021/06/07 02:53:04;;;;;;;9.65;6.60;;;;;;;17.93;45.43;101904.88;3587645;40;20058;-72
2021/06/07 02:55:35;;;;;;;10.38;7.25;;;;;;;17.94;45.84;101900.22;3587887;40;20064;-71
2021/06/07 02:58:05;;;;;;;10.10;7.45;;;;;;;17.92;45.51;101900.34;3603918;39;20036;-73
2021/06/07 03:00:35;;;;;;;10.73;7.15;;;;;;;17.92;45.41;101896.72;3586117;40;20028;-72
2021/06/07 03:03:06;;;;;;;9.70;7.25;;;;;;;17.91;46.01;101909.69;3588370;40;20043;-71
2021/06/07 03:05:35;;;;;;;11.35;7.00;;;;;;;17.90;45.97;101901.53;3565132;40;20712;-72
2021/06/07 03:08:04;;;;;;;10.82;7.57;;;;;;;17.90;46.17;101912.59;3565510;40;20059;-72
2021/06/07 03:10:32;;;;;;;10.50;7.55;;;;;;;17.89;45.58;101911.72;3581838;40;20110;-72
2021/06/07 03:13:00;;;;;;;9.93;7.43;;;;;;;17.89;45.82;101911.72;3593199;39;20033;-72
2021/06/07 03:15:28;;;;;;;10.68;7.53;;;;;;;17.89;45.80;101906.19;3588864;40;20181;-72
2021/06/07 03:17:57;;;;;;;10.32;7.55;;;;;;;17.90;45.70;101910.69;3587866;40;20045;-72
2021/06/07 03:20:28;;;;;;;9.63;6.88;;;;;;;17.90;45.75;101907.94;3587585;40;20093;-71
2021/06/07 03:22:58;;;;;;;11.98;8.02;;;;;;;17.89;46.07;101906.19;3587758;40;20037;-71
2021/06/07 03:25:28;;;;;;;10.20;7.70;;;;;;;17.88;46.19;101907.22;3581277;40;20302;-72
2021/06/07 03:27:57;;;;;;;10.85;7.97;;;;;;;17.90;45.74;101904.28;3587341;40;20079;-71
2021/06/07 03:30:27;;;;;;;12.73;8.73;;;;;;;17.90;45.95;101910.69;3587855;40;20032;-70
2021/06/07 03:32:55;;;;;;;11.10;7.95;;;;;;;17.90;46.15;101907.06;3586470;40;20035;-72
2021/06/07 03:35:23;;;;;;;11.15;8.10;;;;;;;17.91;45.82;101911.56;3565353;40;20029;-72
2021/06/07 03:37:52;;;;;;;10.25;7.97;;;;;;;17.92;46.41;101902.25;3584099;40;20060;-72
2021/06/07 03:40:25;;;;;;;12.25;7.82;;;;;;;17.92;45.94;101905.03;3603284;39;20285;-71
2021/06/07 03:42:53;;;;;;;10.85;8.02;;;;;;;17.88;45.94;101906.34;3587377;40;20379;-72
2021/06/07 03:45:21;;;;;;;11.65;8.25;;;;;;;17.89;46.33;101905.31;3587669;40;20079;-71
2021/06/07 03:47:49;;;;;;;9.60;7.32;;;;;;;17.90;46.17;101905.16;3586888;40;20048;-71
2021/06/07 03:50:19;;;;;;;11.20;7.63;;;;;;;17.91;46.31;101906.91;3618668;22;20435;-72
2021/06/07 03:52:47;;;;;;;10.70;7.60;;;;;;;17.90;46.30;101905.16;3587284;40;20040;-72
2021/06/07 03:55:19;;;;;;;10.35;7.68;;;;;;;17.92;46.13;101902.25;3580197;40;20075;-72
2021/06/07 03:57:47;;;;;;;10.57;7.60;;;;;;;17.89;46.18;101903.41;3580411;40;20061;-72
2021/06/07 04:00:17;;;;;;;10.82;7.50;;;;;;;17.91;46.18;101914.34;3582014;40;20064;-72
2021/06/07 04:02:45;;;;;;;11.23;8.25;;;;;;;17.89;46.27;101908.97;3579550;40;20079;-72
2021/06/07 04:05:14;;;;;;;10.23;7.55;;;;;;;17.90;45.77;101909.81;3584489;40;20075;-72
2021/06/07 04:07:42;;;;;;;9.88;7.80;;;;;;;17.90;45.69;101907.06;3577039;40;20053;-72
2021/06/07 04:10:13;;;;;;;11.07;7.50;;;;;;;17.90;45.83;101909.81;3579858;40;20049;-72
2021/06/07 04:12:44;;;;;;;9.65;7.72;;;;;;;17.89;45.99;101910.84;3578872;40;20311;-72
2021/06/07 04:15:14;;;;;;;12.52;8.77;;;;;;;17.86;45.71;101909.28;3579505;40;20288;-73
2021/06/07 04:17:42;;;;;;;11.43;8.50;;;;;;;17.83;45.77;101904.03;3580525;40;20060;-73
2021/06/07 04:20:15;;;;;;;11.70;8.13;;;;;;;17.84;45.72;101904.91;3579762;40;20064;-73
2021/06/07 04:22:59;;;;;;;10.75;7.78;;;;;;;17.79;46.19;101910.91;3554630;40;20449;-72
2021/06/07 04:25:48;;;;;;;12.60;9.25;;;;;;;17.78;46.24;101902.78;3584584;40;20065;-73
2021/06/07 04:28:39;;;;;;;12.10;8.70;;;;;;;17.80;46.29;101911.78;3580651;40;20150;-72
2021/06/07 04:31:28;;;;;;;13.57;9.43;;;;;;;17.77;46.32;101912.97;3582390;40;20052;-73
2021/06/07 04:34:16;;;;;;;14.23;9.60;;;;;;;17.76;45.92;101902.94;3578824;40;20032;-73
2021/06/07 04:37:04;;;;;;;13.60;9.75;;;;;;;17.79;46.13;101907.25;3579465;40;20049;-73
2021/06/07 04:39:52;;;;;;;14.48;10.27;;;;;;;17.77;46.40;101912.97;3579693;40;20040;-73
2021/06/07 04:42:39;;;;;;;14.93;10.70;;;;;;;17.77;46.29;101901.91;3560646;40;20036;-72
2021/06/07 04:45:29;;;;;;;15.20;10.88;;;;;;;17.81;45.87;101907.97;3585436;40;20040;-72
2021/06/07 04:48:17;;;;;;;16.52;11.75;;;;;;;17.78;46.14;101905.53;3562418;40;20045;-72
2021/06/07 04:51:04;;;;;;;15.43;11.07;;;;;;;17.79;46.28;101910.03;3563282;40;20033;-73
2021/06/07 04:53:52;;;;;;;15.45;10.55;;;;;;;17.78;45.94;101903.66;3581316;40;20087;-73
2021/06/07 04:56:39;;;;;;;14.25;10.90;;;;;;;17.78;46.08;101905.53;3580241;40;20342;-72
2021/06/07 04:59:26;;;;;;;13.80;10.63;;;;;;;17.78;46.44;101909.19;3577655;40;20131;-72
2021/06/07 05:02:15;;;;;;;14.82;10.32;;;;;;;17.80;46.60;101907.13;3551006;40;20297;-73
2021/06/07 05:05:03;;;;;;;15.23;10.55;;;;;;;17.80;45.89;101909.88;3563088;40;20101;-73
2021/06/07 05:07:51;;;;;;;17.13;11.30;;;;;;;17.80;45.99;101907.13;3545898;40;20046;-72
2021/06/07 05:10:39;;;;;;;14.75;10.68;;;;;;;17.82;46.07;101907.84;3577105;40;20032;-72
2021/06/07 05:13:27;;;;;;;16.92;10.77;;;;;;;17.84;45.81;101907.69;3577031;40;20118;-72
2021/06/07 05:16:16;;;;;;;16.77;10.77;;;;;;;17.84;46.22;101902.16;3576815;40;20473;-72
2021/06/07 05:19:04;;;;;;;15.77;10.98;;;;;;;17.87;45.88;101910.13;3562067;40;20336;-72
2021/06/07 05:21:52;;;;;;;15.50;10.40;;;;;;;17.85;46.02;101902.00;3567284;40;20281;-73
2021/06/07 05:24:19;;;;;;;14.10;9.43;;;;;;;17.88;45.85;101917.41;3576475;40;20045;-72
2021/06/07 05:26:47;;;;;;;12.80;9.43;;;;;;;17.88;45.72;101907.22;3581301;40;20057;-72
2021/06/07 05:29:19;;;;;;;;;;;;;;;17.62;46.72;101920.03;3571552;40;20037;-75
2021/06/07 05:31:47;;;;;;;12.45;7.95;;;;;;;17.84;45.98;101916.88;3570309;40;19962;-75
2021/06/07 05:34:16;;;;;;;11.02;8.00;;;;;;;17.90;45.60;101912.59;3570597;40;20435;-75
2021/06/07 05:36:43;;;;;;;12.63;9.15;;;;;;;17.89;46.09;101913.63;3569406;40;20048;-74
2021/06/07 05:39:15;;;;;;;13.35;8.50;;;;;;;17.88;46.12;101911.88;3579721;40;20439;-75
2021/06/07 05:41:43;;;;;;;12.70;8.63;;;;;;;17.87;45.94;101923.97;3579589;40;20045;-74
2021/06/07 05:44:10;;;;;;;12.18;8.57;;;;;;;17.87;45.92;101924.84;3580058;40;20041;-74
2021/06/07 05:46:39;;;;;;;12.77;8.95;;;;;;;17.87;45.73;101922.06;3571254;40;20142;-75
2021/06/07 05:49:07;;;;;;;12.60;8.65;;;;;;;17.88;46.07;101920.19;3579499;40;20085;-74
2021/06/07 05:51:36;;;;;;;12.80;8.32;;;;;;;17.87;46.16;101924.84;3579712;40;20072;-74
2021/06/07 05:54:05;;;;;;;13.38;9.38;;;;;;;17.85;46.16;101921.38;3585449;40;20033;-73
2021/06/07 05:56:32;;;;;;;12.23;8.68;;;;;;;17.86;45.98;101922.25;3572128;40;20138;-74
2021/06/07 05:59:00;;;;;;;12.65;8.63;;;;;;;17.86;46.13;101923.13;3580261;40;20083;-74
2021/06/07 06:01:31;;;;;;;12.68;9.13;;;;;;;17.88;45.63;101934.88;3581014;40;20029;-75
2021/06/07 06:03:59;;;;;;;13.27;8.95;;;;;;;17.88;45.82;101926.59;3575809;40;20040;-74
2021/06/07 06:06:28;;;;;;;12.60;8.70;;;;;;;17.90;46.05;101923.66;3580963;40;20400;-75
2021/06/07 06:08:57;;;;;;;10.32;7.93;;;;;;;17.92;45.99;101924.41;3580628;40;20403;-75
2021/06/07 06:11:25;;;;;;;12.27;8.82;;;;;;;17.91;46.12;101925.41;3578440;40;20048;-74
2021/06/07 06:13:56;;;;;;;13.68;8.85;;;;;;;17.92;45.61;101927.16;3570192;40;20153;-74
2021/06/07 06:16:25;;;;;;;11.07;8.35;;;;;;;17.91;46.13;101926.28;3569231;40;20415;-74
2021/06/07 06:18:53;;;;;;;13.00;8.85;;;;;;;17.92;46.05;101933.56;3570581;40;20416;-73
2021/06/07 06:21:25;;;;;;;13.30;9.23;;;;;;;17.92;45.58;101928.03;3569796;40;20049;-75
2021/06/07 06:23:53;;;;;;;18.63;11.20;;;;;;;17.90;45.62;101923.66;3570613;40;20037;-75
2021/06/07 06:26:23;;;;;;;17.48;10.65;;;;;;;17.93;45.88;101934.44;3558272;40;20051;-75
2021/06/07 06:28:51;;;;;;;14.18;9.75;;;;;;;17.89;45.72;101925.56;3559158;40;20488;-77
2021/06/07 06:31:19;;;;;;;15.40;10.60;;;;;;;17.88;45.38;101925.72;3559480;40;20041;-76
2021/06/07 06:33:49;;;;;;;15.13;9.98;;;;;;;17.86;45.53;101936.97;3567548;40;20037;-76
2021/06/07 06:36:17;;;;;;;15.68;9.77;;;;;;;17.85;45.66;101932.44;3567430;40;20139;-77
2021/06/07 06:38:45;;;;;;;15.38;10.40;;;;;;;17.84;45.52;101936.25;3550391;40;20037;-75
2021/06/07 06:41:14;;;;;;;12.98;9.70;;;;;;;17.84;46.17;101941.78;3557698;40;20213;-75
2021/06/07 06:43:43;;;;;;;15.55;9.75;;;;;;;17.86;45.57;101939.72;3558339;40;20038;-75
2021/06/07 06:46:11;;;;;;;13.00;9.57;;;;;;;17.85;46.14;101946.28;3558329;40;20037;-74
2021/06/07 06:48:39;;;;;;;15.98;10.73;;;;;;;17.87;45.80;101943.34;3556825;40;20328;-74
2021/06/07 06:51:11;;;;;;;14.82;10.05;;;;;;;17.89;45.69;101949.59;3557523;40;20393;-75
2021/06/07 06:53:38;;;;;;;14.73;10.60;;;;;;;17.90;45.86;101943.03;3558731;40;20102;-74
2021/06/07 06:56:07;;;;;;;14.02;9.65;;;;;;;17.92;46.08;101935.47;3558658;40;20035;-74
2021/06/07 06:58:35;;;;;;;14.98;9.95;;;;;;;17.92;46.05;101941.88;3568755;40;20030;-74
2021/06/07 07:01:04;;;;;;;14.45;9.77;;;;;;;17.96;45.91;101940.53;3575292;40;20090;-73
2021/06/07 07:03:32;;;;;;;13.90;10.00;;;;;;;17.95;46.22;101949.84;3579835;40;20033;-73
2021/06/07 07:06:00;;;;;;;14.35;10.68;;;;;;;17.97;45.93;101947.81;3578070;40;20369;-73
2021/06/07 07:08:29;;;;;;;13.05;10.35;;;;;;;17.99;46.34;101943.00;3579700;40;20316;-73
2021/06/07 07:10:57;;;;;;;13.52;10.32;;;;;;;18.00;45.75;101938.34;3579154;40;20037;-74
2021/06/07 07:13:25;;;;;;;15.18;10.95;;;;;;;18.03;46.12;101947.19;3579281;40;20036;-74
2021/06/07 07:15:53;;;;;;;15.93;11.57;;;;;;;18.05;46.40;101947.06;3579082;40;20470;-73
2021/06/07 07:18:23;;;;;;;14.88;11.70;;;;;;;18.10;46.08;101941.09;3579707;40;20036;-73
2021/06/07 07:20:51;;;;;;;17.95;13.02;;;;;;;18.08;46.40;101949.53;3579682;40;20384;-74
2021/06/07 07:23:19;;;;;;;17.15;13.07;;;;;;;18.12;45.93;101947.31;3579325;40;20122;-74
2021/06/07 07:25:48;;;;;;;14.57;12.30;;;;;;;18.14;46.06;101956.34;3579485;40;20057;-75
2021/06/07 07:28:16;;;;;;;17.55;12.95;;;;;;;18.17;46.21;101953.28;3579640;40;20033;-74
2021/06/07 07:30:45;;;;;;;17.35;12.95;;;;;;;18.17;45.65;101945.84;3579428;40;20469;-73
2021/06/07 07:33:36;;;;;;;16.27;12.77;;;;;;;18.21;45.78;101955.56;3585860;40;20437;-75
2021/06/07 07:36:07;;;;;;;18.17;13.60;;;;;;;18.23;46.24;101955.41;3579817;40;20045;-76
2021/06/07 07:38:35;;;;;;;15.98;12.90;;;;;;;18.23;45.75;101956.28;3555003;40;20449;-74
2021/06/07 07:41:03;;;;;;;18.70;14.32;;;;;;;18.24;46.14;101955.25;3588554;40;20029;-74
2021/06/07 07:43:46;;;;;;;18.73;13.13;;;;;;;18.26;45.91;101950.44;3581125;40;20076;-73
2021/06/07 07:46:14;;;;;;;16.98;13.35;;;;;;;18.25;45.67;101957.00;3549033;40;20560;-75
2021/06/07 07:48:43;;;;;;;19.08;14.13;;;;;;;18.31;46.11;101961.03;3524029;40;20035;-73
2021/06/07 07:51:11;;;;;;;17.83;14.07;;;;;;;18.30;45.63;101954.63;3556736;40;20034;-74
2021/06/07 07:53:38;;;;;;;17.55;13.50;;;;;;;18.33;45.85;101953.44;3558892;40;20087;-74
2021/06/07 07:56:07;;;;;;;18.58;14.38;;;;;;;18.35;45.92;101955.03;3559025;40;20193;-73
2021/06/07 07:58:35;;;;;;;17.10;12.57;;;;;;;18.37;46.33;101952.09;3551165;40;20325;-73
2021/06/07 08:01:03;;;;;;;16.27;11.98;;;;;;;18.40;45.37;101957.34;3558868;40;20042;-72
2021/06/07 08:03:31;;;;;;;13.07;10.23;;;;;;;18.40;45.96;101952.66;3559097;40;20046;-72
2021/06/07 08:06:02;;;;;;;15.85;11.93;;;;;;;18.42;45.50;101958.94;3558808;40;20128;-72
2021/06/07 08:08:29;;;;;;;14.68;11.38;;;;;;;18.41;45.26;101945.22;3559190;40;20030;-73
2021/06/07 08:10:58;;;;;;;15.60;11.25;;;;;;;18.40;45.79;101951.78;3558837;40;20123;-74
2021/06/07 08:13:26;;;;;;;18.40;13.07;;;;;;;18.40;45.67;101951.78;3558774;40;20030;-73
2021/06/07 08:15:54;;;;;;;15.02;11.43;;;;;;;18.41;45.47;101959.06;3559160;40;20297;-73
2021/06/07 08:18:22;;;;;;;13.43;10.38;;;;;;;18.38;45.70;101949.16;3558628;40;20061;-74
2021/06/07 08:20:51;;;;;;;14.38;10.00;;;;;;;18.41;46.06;101951.63;3558851;40;20301;-74
2021/06/07 08:23:21;;;;;;;12.65;10.02;;;;;;;18.47;45.65;101954.78;3560769;40;20424;-73
2021/06/07 08:25:48;;;;;;;11.73;9.10;;;;;;;18.48;45.72;101938.03;3580901;40;20065;-73
2021/06/07 08:28:16;;;;;;;11.88;9.70;;;;;;;18.53;45.90;101948.63;3580915;40;20049;-73
2021/06/07 08:30:44;;;;;;;9.32;7.35;;;;;;;18.59;46.01;101939.69;3579448;40;20033;-74
2021/06/07 08:33:12;;;;;;;10.15;7.85;;;;;;;18.67;46.45;101945.31;3579732;40;20118;-74
2021/06/07 08:35:40;;;;;;;9.95;6.90;;;;;;;18.75;46.62;101942.59;3580658;40;20045;-74
2021/06/07 08:38:08;;;;;;;11.20;7.13;;;;;;;18.84;46.31;101952.78;3581245;40;20033;-74
2021/06/07 08:40:38;;;;;;;11.43;8.48;;;;;;;18.94;46.00;101950.75;3579728;40;20481;-73
2021/06/07 08:43:06;;;;;;;9.10;6.80;;;;;;;19.02;46.22;101950.81;3581210;40;20049;-73
2021/06/07 08:45:35;;;;;;;10.50;7.20;;;;;;;19.11;45.76;101947.06;3581404;40;20045;-74
2021/06/07 08:48:03;;;;;;;11.93;8.15;;;;;;;19.19;45.64;101944.38;3580907;40;20126;-73
2021/06/07 08:50:32;;;;;;;11.60;8.68;;;;;;;19.30;45.82;101947.91;3579462;40;20037;-74
2021/06/07 08:53:00;;;;;;;11.60;8.55;;;;;;;19.36;45.64;101950.88;3580790;40;20043;-73
2021/06/07 08:55:34;;;;;;;10.88;8.18;;;;;;;19.43;45.26;101945.56;3580535;40;20033;-72
2021/06/07 08:58:05;;;;;;;10.10;8.40;;;;;;;19.50;44.97;101949.44;3581073;40;20400;-73
2021/06/07 09:00:38;;;;;;;10.30;7.53;;;;;;;19.54;44.43;101946.19;3580408;40;20040;-73
2021/06/07 09:03:08;;;;;;;10.57;7.55;;;;;;;19.56;44.65;101944.13;3580577;40;20056;-74
2021/06/07 09:05:39;;;;;;;9.85;8.73;;;;;;;19.58;44.27;101946.75;3580731;40;20057;-73
2021/06/07 09:08:09;;;;;;;9.85;7.82;;;;;;;19.62;44.40;101941.72;3580784;40;20061;-74
2021/06/07 09:10:39;;;;;;;9.80;7.68;;;;;;;19.67;44.04;101944.88;3581441;40;20045;-74
2021/06/07 09:13:10;;;;;;;9.40;7.80;;;;;;;19.69;43.81;101946.44;3580594;40;20048;-73
2021/06/07 09:15:40;;;;;;;10.05;7.90;;;;;;;19.70;43.67;101941.75;3579312;40;20167;-73
2021/06/07 09:18:11;;;;;;;7.30;5.60;;;;;;;19.70;43.75;101941.75;3580788;40;20394;-73
2021/06/07 09:20:41;;;;;;;8.05;6.25;;;;;;;19.68;43.58;101944.69;3580269;40;20341;-73
2021/06/07 09:23:13;;;;;;;9.13;6.47;;;;;;;19.68;43.78;101941.91;3570391;40;20044;-74
2021/06/07 09:25:44;;;;;;;8.57;6.72;;;;;;;19.66;43.04;101938.44;3570482;40;20045;-74
2021/06/07 09:28:18;;;;;;;10.00;6.00;;;;;;;19.66;42.79;101943.13;3570865;40;20062;-73
2021/06/07 09:30:50;;;;;;;7.30;5.65;;;;;;;19.65;43.17;101939.47;3570728;40;20054;-73
2021/06/07 09:33:25;;;;;;;7.97;6.25;;;;;;;19.61;42.93;101951.94;3570675;40;20038;-73
2021/06/07 09:36:13;;;;;;;7.68;5.75;;;;;;;19.60;42.54;101950.19;3570451;40;20037;-74
2021/06/07 09:39:07;;;;;;;7.97;5.75;;;;;;;19.59;42.83;101950.38;3570639;40;20043;-76
2021/06/07 09:42:02;;;;;;;9.07;6.28;;;;;;;19.58;42.27;101955.06;3562928;40;20075;-75
2021/06/07 09:44:35;;;;;;;8.10;5.60;;;;;;;19.55;43.11;101945.16;3570126;40;20107;-74
2021/06/07 09:47:15;;;;;;;6.45;4.85;;;;;;;19.56;42.58;101944.13;3576873;40;20475;-73
2021/06/07 09:49:46;;;;;;;8.23;6.40;;;;;;;19.54;42.74;101950.84;3609600;22;21926;-71
2021/06/07 09:52:17;;;;;;;9.60;6.72;;;;;;;19.53;42.55;101955.53;3590026;40;20040;-72
2021/06/07 09:54:46;;;;;;;7.75;6.43;;;;;;;19.52;42.37;101955.69;3590249;40;20025;-71
2021/06/07 09:57:14;;;;;;;8.23;6.10;;;;;;;19.51;42.98;101951.22;3590389;40;20133;-72
2021/06/07 09:59:45;;;;;;;7.72;6.05;;;;;;;19.54;43.15;101953.63;3584138;40;20383;-72
2021/06/07 10:02:16;;;;;;;6.57;5.63;;;;;;;19.54;43.22;101951.72;3587723;40;20122;-70
2021/06/07 10:04:51;;;;;;;7.95;6.65;;;;;;;19.56;43.09;101943.25;3590392;40;20033;-72
2021/06/07 10:07:21;;;;;;;8.38;5.72;;;;;;;19.55;43.44;101944.28;3580582;40;20462;-71
2021/06/07 10:10:07;;;;;;;9.98;6.70;;;;;;;19.56;42.39;101944.13;3590014;40;20040;-72
2021/06/07 10:12:36;;;;;;;7.93;6.15;;;;;;;19.57;43.14;101956.09;3590595;40;20041;-71
2021/06/07 10:15:07;;;;;;;9.60;6.63;;;;;;;19.59;42.77;101956.81;3580796;40;20039;-71
2021/06/07 10:17:36;;;;;;;8.38;6.30;;;;;;;19.58;42.82;101949.50;3568313;40;20298;-72
2021/06/07 10:22:51;;;;;;;7.18;5.28;;;;;;;19.58;42.87;101948.63;3568195;40;20048;-72
2021/06/07 10:25:19;;;;;;;7.75;5.90;;;;;;;19.61;42.38;101951.06;3568389;40;20395;-72
2021/06/07 10:27:47;;;;;;;8.35;7.45;;;;;;;19.60;42.07;101946.53;3585677;40;20031;-72
2021/06/07 10:30:24;;;;;;;9.07;6.85;;;;;;;19.60;41.73;101941.00;3590394;40;20043;-72
2021/06/07 10:32:53;;;;;;;7.53;6.70;;;;;;;19.60;41.98;101946.53;3590112;40;20049;-71
2021/06/07 10:35:32;;;;;;;8.75;7.15;;;;;;;19.63;41.30;101940.66;3568239;40;20440;-71
2021/06/07 10:38:08;;;;;;;7.88;6.43;;;;;;;19.60;42.33;101946.53;3568332;40;20072;-70
2021/06/07 10:40:41;;;;;;;7.22;6.40;;;;;;;19.59;42.07;101945.69;3589691;40;20551;-72
2021/06/07 10:43:14;;;;;;;7.75;6.40;;;;;;;19.57;42.05;101947.78;3589353;40;20072;-72
2021/06/07 10:45:43;;;;;;;8.25;7.25;;;;;;;19.55;41.96;101947.06;3590415;40;20039;-72
2021/06/07 10:48:12;;;;;;;9.20;7.30;;;;;;;19.55;42.48;101947.94;3568665;40;20076;-72
2021/06/07 10:50:43;;;;;;;10.30;8.15;;;;;;;19.55;41.87;101952.59;3560278;40;20670;-71
2021/06/07 10:53:23;;;;;;;9.25;8.25;;;;;;;19.55;41.60;101952.59;3576035;40;20044;-74
2021/06/07 10:56:04;;;;;;;9.13;8.18;;;;;;;19.52;41.74;101956.56;3580860;40;20129;-72
2021/06/07 10:58:32;;;;;;;9.48;8.00;;;;;;;19.49;41.75;101951.34;3591292;40;20072;-72
2021/06/07 11:01:03;;;;;;;10.55;9.13;;;;;;;19.50;42.01;101944.78;3581752;40;20047;-72
2021/06/07 11:03:33;;;;;;;9.10;8.20;;;;;;;19.49;41.91;101947.69;3591290;40;20119;-72
2021/06/07 11:06:04;;;;;;;9.20;7.97;;;;;;;19.49;42.01;101947.69;3591481;40;20075;-72
2021/06/07 11:08:35;;;;;;;7.72;6.93;;;;;;;19.47;42.13;101947.84;3592328;40;20033;-73
2021/06/07 11:11:05;;;;;;;9.02;7.30;;;;;;;19.51;42.01;101948.44;3582881;40;20037;-73
2021/06/07 11:13:44;;;;;;;9.27;7.30;;;;;;;19.51;42.32;101946.50;3568155;40;20049;-74
2021/06/07 11:16:26;;;;;;;11.40;8.30;;;;;;;19.53;41.25;101951.91;3549549;40;20045;-72
2021/06/07 11:18:57;;;;;;;9.90;7.53;;;;;;;19.52;41.96;101951.03;3572360;40;20359;-72
2021/06/07 11:21:27;;;;;;;8.60;7.65;;;;;;;19.51;42.13;101953.97;3581058;40;20387;-72
2021/06/07 11:23:55;;;;;;;8.68;7.75;;;;;;;19.50;41.94;101949.44;3586269;40;20036;-71
2021/06/07 11:26:35;;;;;;;8.68;7.78;;;;;;;19.52;41.19;101951.03;3591366;40;20032;-72
2021/06/07 11:29:08;;;;;;;8.05;6.63;;;;;;;19.52;41.59;101945.47;3591457;40;20040;-72
2021/06/07 11:31:56;;;;;;;9.18;8.27;;;;;;;19.51;41.59;101949.28;3591674;40;20037;-72
2021/06/07 11:34:46;;;;;;;8.52;7.18;;;;;;;19.47;41.78;101950.63;3591699;40;20068;-73
2021/06/07 11:37:17;;;;;;;7.68;6.88;;;;;;;19.46;41.28;101951.66;3572181;40;20308;-74
2021/06/07 11:39:53;;;;;;;8.23;6.97;;;;;;;19.45;40.33;101957.34;3581381;40;20045;-73
2021/06/07 11:42:25;;;;;;;7.22;6.10;;;;;;;19.40;41.56;101946.78;3590429;40;20028;-73